Algosoo — VGJD — position and weather

sailwx.info

Track history (hours):
 
Tides and Currents Weather Stations Pressure Air Temp Water Temp Dewpoint Dewpoint Depression Visibility Wind Speed Wind Dir Waves Ship Positions

Algosoo

Last reported at 2014-Oct-20 05:24 UTC. Time now 2014-Oct-21 12:01 UTC.
Position N 42°28' W 080°12'.

Length 223 m; draft 7.9 m.

Type: Cargo ship. MMSI: 316001799.

Date/timePositionNaut miles runAvg speedWind from/ knotsBaromVisibWave heightAir tempDewpointWater temp
2014-Oct-20 05:24N 42°28' W 080°12'8 9.5
2014-Oct-20 04:33N 42°31' W 080°02'178 4.5
2014-Oct-18 12:33N 44°01' W 076°30'10 9.7
2014-Oct-18 11:33N 44°08' W 076°21'9 9.0
2014-Oct-18 10:30N 44°13' W 076°10'91 6.1
2014-Oct-17 19:27N 45°07' W 074°27'7 8.2
2014-Oct-17 18:34N 45°12' W 074°18'8 7.9
2014-Oct-17 17:33N 45°14' W 074°08'7 6.6
2014-Oct-17 16:33N 45°15' W 073°58'4 3.7
2014-Oct-17 15:33N 45°18' W 073°56'1 0.8
2014-Oct-17 14:33N 45°19' W 073°55'3 2.9
2014-Oct-17 13:33N 45°21' W 073°52'7 6.9
2014-Oct-17 12:33N 45°24' W 073°44'6 5.5
2014-Oct-17 11:33N 45°24' W 073°36'2 1.7
2014-Oct-17 10:33N 45°24' W 073°33'4 4.2
2014-Oct-17 09:33N 45°28' W 073°30'2 1.7
2014-Oct-17 08:33N 45°30' W 073°31'3 3.2
2014-Oct-17 07:33N 45°33' W 073°31'7 6.8
2014-Oct-17 06:33N 45°39' W 073°28'7 7.0
2014-Oct-17 05:33N 45°46' W 073°23'7 7.5
2014-Oct-17 04:33N 45°51' W 073°16'28 6.6
2014-Oct-17 00:18N 46°13' W 072°50'6 8.6
2014-Oct-16 23:33N 46°16' W 072°42'7 7.5
2014-Oct-16 22:33N 46°20' W 072°33'8 8.1
2014-Oct-16 21:33N 46°25' W 072°23'8 7.7
2014-Oct-16 20:33N 46°29' W 072°14'12 7.8
2014-Oct-16 19:04N 46°36' W 072°00'  
2014-Oct-12 13:19N 46°36' W 071°59'912.0
2014-Oct-12 12:33N 46°32' W 072°11'1010.5
2014-Oct-12 11:33N 46°25' W 072°22'1111.0
2014-Oct-12 10:33N 46°18' W 072°34'2510.6
2014-Oct-12 08:11N 46°04' W 073°04'610.0
2014-Oct-12 07:33N 45°60' W 073°11'1211.6
2014-Oct-12 06:33N 45°49' W 073°18'1111.3
2014-Oct-12 05:33N 45°40' W 073°28'10 9.7
2014-Oct-12 04:33N 45°31' W 073°31'2 1.7
2014-Oct-12 03:33N 45°29' W 073°31'5 4.6
2014-Oct-12 02:33N 45°24' W 073°32'2 1.8
2014-Oct-12 01:33N 45°24' W 073°35'5 4.7
2014-Oct-12 00:33N 45°25' W 073°42'6 6.4
2014-Oct-11 23:33N 45°22' W 073°50'5 4.8
2014-Oct-11 22:33N 45°19' W 073°55'1 1.0
2014-Oct-11 21:33N 45°18' W 073°56'6 6.0
2014-Oct-11 20:33N 45°14' W 074°01'10 9.9
2014-Oct-11 19:33N 45°13' W 074°15'1010.0
2014-Oct-11 18:33N 45°08' W 074°27'90 6.9
2014-Oct-11 05:33N 44°14' W 076°08'10 9.7
2014-Oct-11 04:33N 44°09' W 076°20'1010.4
2014-Oct-11 03:33N 44°00' W 076°28'  
Track history (hours):
 
Tides and Currents Weather Stations Pressure Air Temp Water Temp Dewpoint Dewpoint Depression Visibility Wind Speed Wind Dir Waves Ship Positions

Algosoo

Last reported at 2014-Oct-20 05:24 UTC. Time now 2014-Oct-21 12:01 UTC.
Position N 42°28' W 080°12'.

Length 223 m; draft 7.9 m.

Type: Cargo ship. MMSI: 316001799.

Date/timePositionNaut miles runAvg speedWind from/ knotsBaromVisibWave heightAir tempDewpointWater temp
2014-Oct-20 05:24N 42°28' W 080°12'8 9.5
2014-Oct-20 04:33N 42°31' W 080°02'178 4.5
2014-Oct-18 12:33N 44°01' W 076°30'10 9.7
2014-Oct-18 11:33N 44°08' W 076°21'9 9.0
2014-Oct-18 10:30N 44°13' W 076°10'91 6.1
2014-Oct-17 19:27N 45°07' W 074°27'7 8.2
2014-Oct-17 18:34N 45°12' W 074°18'8 7.9
2014-Oct-17 17:33N 45°14' W 074°08'7 6.6
2014-Oct-17 16:33N 45°15' W 073°58'4 3.7
2014-Oct-17 15:33N 45°18' W 073°56'1 0.8
2014-Oct-17 14:33N 45°19' W 073°55'3 2.9
2014-Oct-17 13:33N 45°21' W 073°52'7 6.9
2014-Oct-17 12:33N 45°24' W 073°44'6 5.5
2014-Oct-17 11:33N 45°24' W 073°36'2 1.7
2014-Oct-17 10:33N 45°24' W 073°33'4 4.2
2014-Oct-17 09:33N 45°28' W 073°30'2 1.7
2014-Oct-17 08:33N 45°30' W 073°31'3 3.2
2014-Oct-17 07:33N 45°33' W 073°31'7 6.8
2014-Oct-17 06:33N 45°39' W 073°28'7 7.0
2014-Oct-17 05:33N 45°46' W 073°23'7 7.5
2014-Oct-17 04:33N 45°51' W 073°16'28 6.6
2014-Oct-17 00:18N 46°13' W 072°50'6 8.6
2014-Oct-16 23:33N 46°16' W 072°42'7 7.5
2014-Oct-16 22:33N 46°20' W 072°33'8 8.1
2014-Oct-16 21:33N 46°25' W 072°23'8 7.7
2014-Oct-16 20:33N 46°29' W 072°14'12 7.8
2014-Oct-16 19:04N 46°36' W 072°00'  
2014-Oct-12 13:19N 46°36' W 071°59'912.0
2014-Oct-12 12:33N 46°32' W 072°11'1010.5
2014-Oct-12 11:33N 46°25' W 072°22'1111.0
2014-Oct-12 10:33N 46°18' W 072°34'2510.6
2014-Oct-12 08:11N 46°04' W 073°04'610.0
2014-Oct-12 07:33N 45°60' W 073°11'1211.6
2014-Oct-12 06:33N 45°49' W 073°18'1111.3
2014-Oct-12 05:33N 45°40' W 073°28'10 9.7
2014-Oct-12 04:33N 45°31' W 073°31'2 1.7
2014-Oct-12 03:33N 45°29' W 073°31'5 4.6
2014-Oct-12 02:33N 45°24' W 073°32'2 1.8
2014-Oct-12 01:33N 45°24' W 073°35'5 4.7
2014-Oct-12 00:33N 45°25' W 073°42'6 6.4
2014-Oct-11 23:33N 45°22' W 073°50'5 4.8
2014-Oct-11 22:33N 45°19' W 073°55'1 1.0
2014-Oct-11 21:33N 45°18' W 073°56'6 6.0
2014-Oct-11 20:33N 45°14' W 074°01'10 9.9
2014-Oct-11 19:33N 45°13' W 074°15'1010.0
2014-Oct-11 18:33N 45°08' W 074°27'90 6.9
2014-Oct-11 05:33N 44°14' W 076°08'10 9.7
2014-Oct-11 04:33N 44°09' W 076°20'1010.4
2014-Oct-11 03:33N 44°00' W 076°28'  

Dump ship's entire track history